Time;durP1;ratioP1;P1;durP2;ratioP2;P2;SDS_P1;SDS_P2;PMS_P1;PMS_P2;Temp;Humidity;BMP_temperature;BMP_pressure;BME280_temperature;BME280_humidity;BME280_pressure;Samples;Min_cycle;Max_cycle;Signal;HPM_P1;HPM_P2
2024/01/20 00:02:24;;;;;;;9.17;3.83;;;;;;;;;;4925190;29;20436;-81
2024/01/20 00:04:53;;;;;;;5.83;3.60;;;;;;;;;;4928313;29;20422;-79
2024/01/20 00:07:19;;;;;;;8.53;5.00;;;;;;;;;;4927728;29;20410;-79
2024/01/20 00:09:45;;;;;;;7.87;4.33;;;;;;;;;;4926465;29;20455;-81
2024/01/20 00:12:11;;;;;;;10.37;4.37;;;;;;;;;;4928202;29;21094;-80
2024/01/20 00:14:37;;;;;;;12.20;4.53;;;;;;;;;;4926324;29;20411;-80
2024/01/20 00:17:13;;;;;;;4.60;3.90;;;;;;;;;;4926297;29;20759;-79
2024/01/20 00:19:39;;;;;;;5.90;3.20;;;;;;;;;;4927914;29;20482;-79
2024/01/20 00:22:04;;;;;;;7.23;4.60;;;;;;;;;;4927854;29;21000;-80
2024/01/20 00:24:30;;;;;;;8.90;4.37;;;;;;;;;;4925147;29;20459;-80
2024/01/20 00:26:56;;;;;;;7.93;4.33;;;;;;;;;;4927165;29;20441;-80
2024/01/20 00:29:22;;;;;;;7.57;3.50;;;;;;;;;;4927845;29;20544;-81
2024/01/20 00:31:48;;;;;;;7.13;3.53;;;;;;;;;;4926183;29;20513;-80
2024/01/20 00:34:14;;;;;;;6.07;3.80;;;;;;;;;;4927216;29;20427;-80
2024/01/20 00:36:40;;;;;;;12.37;4.70;;;;;;;;;;4926964;29;20431;-80
2024/01/20 00:39:06;;;;;;;4.80;4.30;;;;;;;;;;4925993;29;20556;-81
2024/01/20 00:41:32;;;;;;;6.03;4.30;;;;;;;;;;4927630;29;20565;-81
2024/01/20 00:43:58;;;;;;;7.93;3.80;;;;;;;;;;4925736;29;20502;-79
2024/01/20 00:46:24;;;;;;;9.60;4.43;;;;;;;;;;4926516;29;20911;-80
2024/01/20 00:48:50;;;;;;;8.63;4.17;;;;;;;;;;4927274;29;20438;-80
2024/01/20 00:51:16;;;;;;;7.70;3.60;;;;;;;;;;4926741;29;20420;-79
2024/01/20 00:53:42;;;;;;;5.50;3.10;;;;;;;;;;4925780;29;20480;-81
2024/01/20 00:56:08;;;;;;;6.63;4.07;;;;;;;;;;4927377;29;20465;-79
2024/01/20 00:58:34;;;;;;;8.40;5.47;;;;;;;;;;4926784;29;20480;-80
2024/01/20 01:01:00;;;;;;;9.07;5.10;;;;;;;;;;4918429;29;20431;-81
2024/01/20 01:03:26;;;;;;;9.80;4.67;;;;;;;;;;4909565;28;20468;-81
2024/01/20 01:05:52;;;;;;;9.53;4.93;;;;;;;;;;4944826;28;20481;-81
2024/01/20 01:08:18;;;;;;;11.17;5.60;;;;;;;;;;4935266;29;20433;-80
2024/01/20 01:10:44;;;;;;;10.10;4.77;;;;;;;;;;4936434;29;20883;-80
2024/01/20 01:13:10;;;;;;;10.20;4.93;;;;;;;;;;4936464;29;20426;-80
2024/01/20 01:15:38;;;;;;;8.90;5.27;;;;;;;;;;4936435;29;20421;-81
2024/01/20 01:18:04;;;;;;;7.80;5.23;;;;;;;;;;4935068;29;20916;-80
2024/01/20 01:20:30;;;;;;;8.93;4.73;;;;;;;;;;4936358;29;20437;-80
2024/01/20 01:22:56;;;;;;;10.73;5.23;;;;;;;;;;4934571;29;20429;-81
2024/01/20 01:25:22;;;;;;;8.23;5.37;;;;;;;;;;4936407;29;20833;-79
2024/01/20 01:27:48;;;;;;;9.57;4.90;;;;;;;;;;4936571;29;20443;-79
2024/01/20 01:30:17;;;;;;;8.80;4.57;;;;;;;;;;4936383;29;20443;-80
2024/01/20 01:32:43;;;;;;;11.23;4.77;;;;;;;;;;4932672;29;20433;-80
2024/01/20 01:35:09;;;;;;;8.77;5.90;;;;;;;;;;4925874;29;20424;-79
2024/01/20 01:37:35;;;;;;;10.60;6.43;;;;;;;;;;4925035;29;20808;-79
2024/01/20 01:40:01;;;;;;;10.43;6.50;;;;;;;;;;4925299;29;20433;-80
2024/01/20 01:42:27;;;;;;;11.77;7.53;;;;;;;;;;4927267;29;20406;-80
2024/01/20 01:44:53;;;;;;;10.63;7.57;;;;;;;;;;4926865;29;20415;-80
2024/01/20 01:47:19;;;;;;;12.37;6.27;;;;;;;;;;4927295;29;20959;-80
2024/01/20 01:49:48;;;;;;;11.10;8.63;;;;;;;;;;4927757;29;20574;-80
2024/01/20 01:52:14;;;;;;;9.57;7.60;;;;;;;;;;4924809;29;20840;-80
2024/01/20 01:54:40;;;;;;;9.53;7.93;;;;;;;;;;4926110;29;20425;-79
2024/01/20 01:57:06;;;;;;;11.30;7.33;;;;;;;;;;4923706;29;20421;-79
2024/01/20 01:59:32;;;;;;;11.23;7.80;;;;;;;;;;4925266;29;20469;-79
2024/01/20 02:01:58;;;;;;;11.43;7.47;;;;;;;;;;4926569;29;20411;-79
2024/01/20 02:04:24;;;;;;;14.30;8.33;;;;;;;;;;4926912;29;20903;-79
2024/01/20 02:06:50;;;;;;;13.20;9.27;;;;;;;;;;4924933;29;20414;-79
2024/01/20 02:09:17;;;;;;;12.30;8.10;;;;;;;;;;4926805;29;20413;-79
2024/01/20 02:11:46;;;;;;;11.03;7.63;;;;;;;;;;4926759;29;20411;-78
2024/01/20 02:14:12;;;;;;;15.57;9.53;;;;;;;;;;4927783;29;20422;-79
2024/01/20 02:16:38;;;;;;;10.97;7.63;;;;;;;;;;4926428;29;20428;-79
2024/01/20 02:19:05;;;;;;;8.87;7.97;;;;;;;;;;4926706;29;20477;-79
2024/01/20 02:21:32;;;;;;;13.03;9.20;;;;;;;;;;4924603;29;20495;-79
2024/01/20 02:23:59;;;;;;;14.47;8.43;;;;;;;;;;4926336;29;20432;-80
2024/01/20 02:26:27;;;;;;;15.13;9.73;;;;;;;;;;4926805;29;20446;-79
2024/01/20 02:28:53;;;;;;;12.90;9.10;;;;;;;;;;4927672;29;20426;-80
2024/01/20 02:31:18;;;;;;;11.57;7.80;;;;;;;;;;4925044;29;20504;-81
2024/01/20 02:33:44;;;;;;;10.20;8.30;;;;;;;;;;4926543;29;20492;-79
2024/01/20 02:36:10;;;;;;;11.33;8.43;;;;;;;;;;4924562;29;20448;-84
2024/01/20 02:38:36;;;;;;;15.30;10.00;;;;;;;;;;4926241;29;20992;-83
2024/01/20 02:41:02;;;;;;;8.97;8.07;;;;;;;;;;4926316;29;20425;-77
2024/01/20 02:43:28;;;;;;;13.33;8.20;;;;;;;;;;4924869;29;20433;-79
2024/01/20 02:45:54;;;;;;;14.40;10.00;;;;;;;;;;4926730;29;20420;-79
2024/01/20 02:48:20;;;;;;;13.60;8.27;;;;;;;;;;4925016;29;20760;-81
2024/01/20 02:50:46;;;;;;;13.77;8.80;;;;;;;;;;4924866;29;20412;-79
2024/01/20 02:53:12;;;;;;;14.70;9.70;;;;;;;;;;4926727;29;20437;-79
2024/01/20 02:55:38;;;;;;;15.10;11.10;;;;;;;;;;4925654;29;20908;-82
2024/01/20 02:58:04;;;;;;;16.73;10.57;;;;;;;;;;4925187;29;20479;-83
2024/01/20 03:00:29;;;;;;;15.20;9.40;;;;;;;;;;4926737;29;20410;-83
2024/01/20 03:02:55;;;;;;;16.00;9.90;;;;;;;;;;4923980;29;20951;-80
2024/01/20 03:05:21;;;;;;;10.73;9.60;;;;;;;;;;4884768;29;20439;-82
2024/01/20 03:07:47;;;;;;;15.03;9.30;;;;;;;;;;4926319;29;20434;-79
2024/01/20 03:10:14;;;;;;;17.70;10.63;;;;;;;;;;4927302;29;20430;-80
2024/01/20 03:12:42;;;;;;;15.93;9.87;;;;;;;;;;4925742;29;20422;-79
2024/01/20 03:15:08;;;;;;;12.93;9.83;;;;;;;;;;4926426;29;20422;-82
2024/01/20 03:17:34;;;;;;;11.90;9.67;;;;;;;;;;4924892;29;20412;-78
2024/01/20 03:20:00;;;;;;;12.70;11.40;;;;;;;;;;4925534;29;20422;-79
2024/01/20 03:22:26;;;;;;;15.73;11.53;;;;;;;;;;4926220;29;20446;-80
2024/01/20 03:24:52;;;;;;;15.63;11.40;;;;;;;;;;4924506;29;20415;-78
2024/01/20 03:27:18;;;;;;;15.97;10.50;;;;;;;;;;4925860;29;20437;-83
2024/01/20 03:29:44;;;;;;;14.00;11.30;;;;;;;;;;4926154;29;20419;-83
2024/01/20 03:32:10;;;;;;;16.90;12.77;;;;;;;;;;4924552;29;20420;-83
2024/01/20 03:34:37;;;;;;;20.23;12.57;;;;;;;;;;4926233;29;20833;-79
2024/01/20 03:37:12;;;;;;;19.77;13.37;;;;;;;;;;4925175;29;20470;-82
2024/01/20 03:39:38;;;;;;;17.90;12.20;;;;;;;;;;4925099;29;20479;-80
2024/01/20 03:42:06;;;;;;;19.63;13.50;;;;;;;;;;4923619;29;20480;-80
2024/01/20 03:44:32;;;;;;;18.73;12.80;;;;;;;;;;4926255;29;20424;-80
2024/01/20 03:46:58;;;;;;;19.10;13.47;;;;;;;;;;4925204;29;20834;-80
2024/01/20 03:49:24;;;;;;;23.50;14.87;;;;;;;;;;4923513;29;20824;-80
2024/01/20 03:51:50;;;;;;;15.77;12.83;;;;;;;;;;4925914;29;20826;-83
2024/01/20 03:54:16;;;;;;;16.07;13.13;;;;;;;;;;4924765;29;20426;-79
2024/01/20 03:56:43;;;;;;;17.63;13.50;;;;;;;;;;4925015;29;20430;-80
2024/01/20 03:59:09;;;;;;;15.63;13.80;;;;;;;;;;4927246;29;20470;-79
2024/01/20 04:01:35;;;;;;;17.80;15.53;;;;;;;;;;4927952;29;20541;-79
2024/01/20 04:04:01;;;;;;;20.33;14.93;;;;;;;;;;4928520;29;20650;-80
2024/01/20 04:06:27;;;;;;;24.63;14.40;;;;;;;;;;4927783;29;20473;-83
2024/01/20 04:08:53;;;;;;;22.47;15.67;;;;;;;;;;4927397;29;20787;-79
2024/01/20 04:11:18;;;;;;;19.73;15.13;;;;;;;;;;4928668;29;20413;-83
2024/01/20 04:13:44;;;;;;;24.43;16.63;;;;;;;;;;4929073;29;20499;-80
2024/01/20 04:16:10;;;;;;;19.20;16.10;;;;;;;;;;4927240;29;20446;-80
2024/01/20 04:18:36;;;;;;;28.10;18.10;;;;;;;;;;4928907;29;20484;-79
2024/01/20 04:21:02;;;;;;;19.37;14.60;;;;;;;;;;4928119;29;20843;-79
2024/01/20 04:23:28;;;;;;;19.43;14.47;;;;;;;;;;4927293;29;20428;-83
2024/01/20 04:25:54;;;;;;;21.50;15.17;;;;;;;;;;4929068;29;20506;-85
2024/01/20 04:28:22;;;;;;;21.37;14.50;;;;;;;;;;4928111;29;20870;-83
2024/01/20 04:30:50;;;;;;;22.87;16.47;;;;;;;;;;4927046;29;20467;-79
2024/01/20 04:33:15;;;;;;;22.87;16.67;;;;;;;;;;4928810;29;20497;-79
2024/01/20 04:35:41;;;;;;;23.23;14.93;;;;;;;;;;4927754;29;20440;-80
2024/01/20 04:38:07;;;;;;;24.60;16.80;;;;;;;;;;4926706;29;20544;-83
2024/01/20 04:40:33;;;;;;;17.30;14.63;;;;;;;;;;4929558;29;20501;-79
2024/01/20 04:42:59;;;;;;;19.33;15.10;;;;;;;;;;4928078;29;20447;-80
2024/01/20 04:45:25;;;;;;;21.37;16.70;;;;;;;;;;4928537;29;20968;-79
2024/01/20 04:47:51;;;;;;;16.20;14.50;;;;;;;;;;4926758;29;20780;-84
2024/01/20 04:50:17;;;;;;;24.63;15.57;;;;;;;;;;4927855;29;20418;-80
2024/01/20 04:52:46;;;;;;;18.47;15.87;;;;;;;;;;4928050;29;20415;-79
2024/01/20 04:55:11;;;;;;;24.03;15.90;;;;;;;;;;4926694;29;20902;-80
2024/01/20 04:57:37;;;;;;;16.53;14.17;;;;;;;;;;4928027;29;20504;-80
2024/01/20 05:00:04;;;;;;;22.17;14.17;;;;;;;;;;4927843;29;20499;-79
2024/01/20 05:02:30;;;;;;;17.67;12.90;;;;;;;;;;4926580;29;20882;-81
2024/01/20 05:04:56;;;;;;;19.40;15.40;;;;;;;;;;4928076;29;20448;-79
2024/01/20 05:07:22;;;;;;;22.30;15.83;;;;;;;;;;4927260;29;20412;-80
2024/01/20 05:09:51;;;;;;;21.80;15.47;;;;;;;;;;4926069;29;20415;-79
2024/01/20 05:12:16;;;;;;;17.53;14.77;;;;;;;;;;4927327;29;20420;-79
2024/01/20 05:14:42;;;;;;;28.23;14.40;;;;;;;;;;4927579;29;20425;-81
2024/01/20 05:17:08;;;;;;;13.83;12.33;;;;;;;;;;4926224;29;20912;-81
2024/01/20 05:19:38;;;;;;;21.07;13.57;;;;;;;;;;4927896;29;20479;-80
2024/01/20 05:22:04;;;;;;;18.00;13.70;;;;;;;;;;4927334;29;20420;-80
2024/01/20 05:24:30;;;;;;;19.57;13.37;;;;;;;;;;4924927;29;20511;-80
2024/01/20 05:26:56;;;;;;;19.23;14.03;;;;;;;;;;4927792;29;20413;-81
2024/01/20 05:29:25;;;;;;;18.80;13.23;;;;;;;;;;4927236;29;20417;-80
2024/01/20 05:31:50;;;;;;;19.73;12.57;;;;;;;;;;4925977;29;20418;-80
2024/01/20 05:34:16;;;;;;;17.30;12.50;;;;;;;;;;4934228;29;20778;-79
2024/01/20 05:36:42;;;;;;;18.70;14.07;;;;;;;;;;4936260;29;20461;-79
2024/01/20 05:39:08;;;;;;;16.27;10.80;;;;;;;;;;4936748;29;20477;-79
2024/01/20 05:41:34;;;;;;;19.63;14.20;;;;;;;;;;4936723;29;20753;-78
2024/01/20 05:44:02;;;;;;;18.80;12.63;;;;;;;;;;4936723;29;20422;-80
2024/01/20 05:46:28;;;;;;;19.20;14.07;;;;;;;;;;4936644;29;20494;-79
2024/01/20 05:48:54;;;;;;;17.63;11.13;;;;;;;;;;4936664;29;20478;-79
2024/01/20 05:51:20;;;;;;;16.23;13.17;;;;;;;;;;4936299;29;20421;-80
2024/01/20 05:53:46;;;;;;;17.70;12.63;;;;;;;;;;4936596;29;20422;-79
2024/01/20 05:56:12;;;;;;;19.50;13.33;;;;;;;;;;4936633;29;20764;-80
2024/01/20 05:58:38;;;;;;;15.13;13.53;;;;;;;;;;4936468;29;20567;-79
2024/01/20 06:01:04;;;;;;;18.17;13.87;;;;;;;;;;4936449;29;20505;-81
2024/01/20 06:03:30;;;;;;;18.03;13.37;;;;;;;;;;4936397;29;20426;-78
2024/01/20 06:05:56;;;;;;;14.60;13.20;;;;;;;;;;4935783;29;20815;-81
2024/01/20 06:08:22;;;;;;;22.00;13.83;;;;;;;;;;4936346;29;20476;-80
2024/01/20 06:10:51;;;;;;;19.53;15.63;;;;;;;;;;4934991;29;20488;-77
2024/01/20 06:13:17;;;;;;;16.53;14.80;;;;;;;;;;4936499;29;20906;-80
2024/01/20 06:15:43;;;;;;;15.23;13.40;;;;;;;;;;4934798;29;20432;-78
2024/01/20 06:18:09;;;;;;;16.60;14.80;;;;;;;;;;4936119;29;20479;-78
2024/01/20 06:20:34;;;;;;;25.70;15.83;;;;;;;;;;4935826;29;20443;-85
2024/01/20 06:23:00;;;;;;;24.67;15.90;;;;;;;;;;4935906;29;20516;-78
2024/01/20 06:25:26;;;;;;;22.83;16.17;;;;;;;;;;4936103;29;20437;-78
2024/01/20 06:27:52;;;;;;;21.13;14.87;;;;;;;;;;4936074;29;20511;-77
2024/01/20 06:30:18;;;;;;;24.90;15.40;;;;;;;;;;4936006;29;20969;-77
2024/01/20 06:32:45;;;;;;;24.97;15.70;;;;;;;;;;4935994;29;20453;-84
2024/01/20 06:35:11;;;;;;;19.03;15.07;;;;;;;;;;4935668;29;20417;-83
2024/01/20 06:37:37;;;;;;;21.20;15.13;;;;;;;;;;4935708;29;20458;-84
2024/01/20 06:40:03;;;;;;;23.97;15.37;;;;;;;;;;4935968;29;20445;-84
2024/01/20 06:42:29;;;;;;;25.33;13.60;;;;;;;;;;4935820;29;20417;-84
2024/01/20 06:44:55;;;;;;;24.10;14.83;;;;;;;;;;4935849;29;20422;-79
2024/01/20 06:47:25;;;;;;;21.60;16.93;;;;;;;;;;4943632;29;20417;-79
2024/01/20 06:49:53;;;;;;;18.33;15.30;;;;;;;;;;4954632;28;20417;-84
2024/01/20 06:52:19;;;;;;;23.97;15.30;;;;;;;;;;4954922;28;20411;-79
2024/01/20 06:54:45;;;;;;;27.13;15.93;;;;;;;;;;4954907;28;20427;-79
2024/01/20 06:57:12;;;;;;;19.00;14.53;;;;;;;;;;4953678;28;20410;-82
2024/01/20 06:59:38;;;;;;;20.27;15.77;;;;;;;;;;4953545;28;21012;-84
2024/01/20 07:02:04;;;;;;;18.93;14.70;;;;;;;;;;4954946;28;20496;-84
2024/01/20 07:04:30;;;;;;;18.13;13.30;;;;;;;;;;4954824;28;20414;-84
2024/01/20 07:06:56;;;;;;;26.53;17.17;;;;;;;;;;4903307;29;20501;-84
2024/01/20 07:09:23;;;;;;;19.93;14.60;;;;;;;;;;4935694;29;20451;-83
2024/01/20 07:11:49;;;;;;;24.57;15.60;;;;;;;;;;4935712;29;20852;-83
2024/01/20 07:14:17;;;;;;;20.07;15.00;;;;;;;;;;4934633;29;20434;-83
2024/01/20 07:16:42;;;;;;;21.00;15.20;;;;;;;;;;4935902;29;20477;-83
2024/01/20 07:19:08;;;;;;;22.73;14.67;;;;;;;;;;4935549;29;20472;-83
2024/01/20 07:21:34;;;;;;;19.33;14.73;;;;;;;;;;4935312;29;20915;-82
2024/01/20 07:24:00;;;;;;;21.20;13.80;;;;;;;;;;4935635;29;20424;-82
2024/01/20 07:26:26;;;;;;;22.40;15.90;;;;;;;;;;4935521;29;20444;-80
2024/01/20 07:28:52;;;;;;;21.20;16.00;;;;;;;;;;4935489;29;20540;-84
2024/01/20 07:31:18;;;;;;;22.80;14.73;;;;;;;;;;4935075;29;20418;-85
2024/01/20 07:33:44;;;;;;;21.63;12.20;;;;;;;;;;4950265;28;20944;-83
2024/01/20 07:36:11;;;;;;;20.93;13.80;;;;;;;;;;4956183;28;20416;-81
2024/01/20 07:38:37;;;;;;;22.97;15.30;;;;;;;;;;4956538;28;20500;-87
2024/01/20 07:41:03;;;;;;;22.57;14.20;;;;;;;;;;4958151;28;20412;-84
2024/01/20 07:43:29;;;;;;;25.13;14.20;;;;;;;;;;4956903;28;20447;-85
2024/01/20 07:45:56;;;;;;;23.53;14.77;;;;;;;;;;4947255;28;20513;-87
2024/01/20 07:48:22;;;;;;;21.83;14.40;;;;;;;;;;4919994;29;20778;-83
2024/01/20 07:50:48;;;;;;;22.37;14.30;;;;;;;;;;4919385;29;20502;-87
2024/01/20 07:53:14;;;;;;;22.67;14.80;;;;;;;;;;4919764;29;20170;-85
2024/01/20 07:55:40;;;;;;;21.83;13.90;;;;;;;;;;4918586;29;20412;-86
2024/01/20 07:58:06;;;;;;;21.20;13.00;;;;;;;;;;4919653;29;20458;-87
2024/01/20 08:00:32;;;;;;;19.33;13.43;;;;;;;;;;4923081;29;20434;-83
2024/01/20 08:02:58;;;;;;;25.20;15.07;;;;;;;;;;4937446;29;20408;-87
2024/01/20 08:05:24;;;;;;;21.53;15.40;;;;;;;;;;4938245;29;20423;-82
2024/01/20 08:07:50;;;;;;;24.30;14.60;;;;;;;;;;4938486;29;20420;-82
2024/01/20 08:10:16;;;;;;;25.70;15.77;;;;;;;;;;4938553;29;20417;-84
2024/01/20 08:12:42;;;;;;;27.33;15.30;;;;;;;;;;4938425;29;20411;-80
2024/01/20 08:15:08;;;;;;;22.80;14.73;;;;;;;;;;4938450;29;20417;-82
2024/01/20 08:17:34;;;;;;;28.50;14.90;;;;;;;;;;4938127;29;20413;-82
2024/01/20 08:20:00;;;;;;;25.70;14.67;;;;;;;;;;4937977;29;20413;-81
2024/01/20 08:22:26;;;;;;;20.63;12.87;;;;;;;;;;4938147;29;20402;-83
2024/01/20 08:24:52;;;;;;;29.63;15.63;;;;;;;;;;4938194;29;20923;-83
2024/01/20 08:27:18;;;;;;;23.40;13.63;;;;;;;;;;4938102;29;20406;-82
2024/01/20 08:29:44;;;;;;;22.80;13.63;;;;;;;;;;4938060;29;20400;-83
2024/01/20 08:32:10;;;;;;;23.47;13.57;;;;;;;;;;4938111;29;20496;-81
2024/01/20 08:34:39;;;;;;;18.57;11.10;;;;;;;;;;4937752;29;20489;-86
2024/01/20 08:37:05;;;;;;;22.47;12.53;;;;;;;;;;4937752;29;20512;-84
2024/01/20 08:39:31;;;;;;;23.73;13.00;;;;;;;;;;4937906;29;20917;-85
2024/01/20 08:41:57;;;;;;;23.03;12.50;;;;;;;;;;4935381;29;20910;-86
2024/01/20 08:44:23;;;;;;;22.13;12.20;;;;;;;;;;4936717;29;20416;-85
2024/01/20 08:46:49;;;;;;;21.13;12.60;;;;;;;;;;4928136;29;20899;-85
2024/01/20 08:49:15;;;;;;;20.30;12.40;;;;;;;;;;4928304;29;20420;-85
2024/01/20 08:51:41;;;;;;;24.70;11.50;;;;;;;;;;4926383;29;20434;-80
2024/01/20 08:54:07;;;;;;;23.97;12.77;;;;;;;;;;4926465;29;20977;-81
2024/01/20 08:56:33;;;;;;;24.40;12.73;;;;;;;;;;4927140;29;20819;-82
2024/01/20 08:58:59;;;;;;;27.80;13.17;;;;;;;;;;4926451;29;20484;-83
2024/01/20 09:01:25;;;;;;;28.43;13.90;;;;;;;;;;4926920;29;20411;-82
2024/01/20 09:03:50;;;;;;;22.70;13.30;;;;;;;;;;4928308;29;20452;-79
2024/01/20 09:06:16;;;;;;;24.30;12.83;;;;;;;;;;4928508;29;20439;-85
2024/01/20 09:08:42;;;;;;;24.60;14.97;;;;;;;;;;4927129;29;20796;-83
2024/01/20 09:11:08;;;;;;;23.27;14.90;;;;;;;;;;4928689;29;20418;-82
2024/01/20 09:13:34;;;;;;;25.13;14.13;;;;;;;;;;4926206;29;20427;-82
2024/01/20 09:16:00;;;;;;;20.00;12.10;;;;;;;;;;4935993;29;20409;-81
2024/01/20 09:18:26;;;;;;;23.10;11.43;;;;;;;;;;4937243;29;20567;-79
2024/01/20 09:20:52;;;;;;;26.93;13.97;;;;;;;;;;4935610;29;20429;-83
2024/01/20 09:23:18;;;;;;;23.83;11.07;;;;;;;;;;4937196;29;20423;-82
2024/01/20 09:25:44;;;;;;;21.77;13.07;;;;;;;;;;4937051;29;20416;-82
2024/01/20 09:28:10;;;;;;;24.70;13.43;;;;;;;;;;4937099;29;20886;-83
2024/01/20 09:30:36;;;;;;;19.63;12.13;;;;;;;;;;4937232;29;20420;-83
2024/01/20 09:33:04;;;;;;;20.77;12.83;;;;;;;;;;4937380;29;20795;-83
2024/01/20 09:35:31;;;;;;;25.40;14.93;;;;;;;;;;4936305;29;20418;-83
2024/01/20 09:37:56;;;;;;;23.00;12.37;;;;;;;;;;4935076;29;20501;-83
2024/01/20 09:40:23;;;;;;;19.10;11.80;;;;;;;;;;4936631;29;20421;-83
2024/01/20 09:42:49;;;;;;;19.53;11.40;;;;;;;;;;4936228;29;20747;-83
2024/01/20 09:45:15;;;;;;;20.60;10.50;;;;;;;;;;4937099;29;20447;-81
2024/01/20 09:47:41;;;;;;;22.20;12.00;;;;;;;;;;4936986;29;20418;-83
2024/01/20 09:50:07;;;;;;;25.40;13.67;;;;;;;;;;4936226;29;20525;-83
2024/01/20 09:52:39;;;;;;;26.77;12.93;;;;;;;;;;4931845;29;20430;-81
2024/01/20 09:55:18;;;;;;;21.83;13.47;;;;;;;;;;4916836;29;20417;-82
2024/01/20 09:57:45;;;;;;;16.87;10.87;;;;;;;;;;4916141;29;20509;-81
2024/01/20 10:00:13;;;;;;;22.07;11.50;;;;;;;;;;4917999;29;20422;-81
2024/01/20 10:02:40;;;;;;;20.07;10.80;;;;;;;;;;4917470;29;20508;-81
2024/01/20 10:05:09;;;;;;;18.73;10.73;;;;;;;;;;4917330;29;20465;-81
2024/01/20 10:07:35;;;;;;;22.80;12.80;;;;;;;;;;4918009;29;20420;-82
2024/01/20 10:10:02;;;;;;;23.63;13.50;;;;;;;;;;4917923;29;20466;-81
2024/01/20 10:12:28;;;;;;;21.27;12.53;;;;;;;;;;4895891;29;20528;-82
2024/01/20 10:14:55;;;;;;;22.97;11.47;;;;;;;;;;4933246;29;20415;-83
2024/01/20 10:17:21;;;;;;;19.77;13.87;;;;;;;;;;4924858;29;20434;-81
2024/01/20 10:19:47;;;;;;;27.33;13.20;;;;;;;;;;4918097;29;20482;-81
2024/01/20 10:22:13;;;;;;;21.90;11.60;;;;;;;;;;4919614;29;20418;-82
2024/01/20 10:24:48;;;;;;;20.13;11.37;;;;;;;;;;4916986;29;20483;-81
2024/01/20 10:27:18;;;;;;;20.90;12.07;;;;;;;;;;4917052;29;20496;-82
2024/01/20 10:29:45;;;;;;;18.23;12.00;;;;;;;;;;4916911;29;20429;-80
2024/01/20 10:32:11;;;;;;;23.23;12.80;;;;;;;;;;4916833;29;20788;-80
2024/01/20 10:34:36;;;;;;;19.87;12.20;;;;;;;;;;4915333;29;20424;-81
2024/01/20 10:37:06;;;;;;;16.70;10.93;;;;;;;;;;4916569;29;20828;-80
2024/01/20 10:39:32;;;;;;;18.93;12.10;;;;;;;;;;4916818;29;20552;-81
2024/01/20 10:41:59;;;;;;;18.37;10.83;;;;;;;;;;4916880;29;20432;-80
2024/01/20 10:44:28;;;;;;;22.27;11.23;;;;;;;;;;4916831;29;20896;-81
2024/01/20 10:46:57;;;;;;;17.07;10.13;;;;;;;;;;4916829;29;20511;-80
2024/01/20 10:49:23;;;;;;;18.57;9.27;;;;;;;;;;4916545;29;20484;-80
2024/01/20 10:51:49;;;;;;;21.63;9.90;;;;;;;;;;4916779;29;20419;-79
2024/01/20 10:54:15;;;;;;;21.53;10.33;;;;;;;;;;4916727;29;20205;-80
2024/01/20 10:56:41;;;;;;;20.53;10.07;;;;;;;;;;4916712;29;20423;-80
2024/01/20 10:59:11;;;;;;;17.80;10.00;;;;;;;;;;4916933;29;20489;-80
2024/01/20 11:01:38;;;;;;;18.00;8.40;;;;;;;;;;4916694;29;20479;-80
2024/01/20 11:04:04;;;;;;;19.83;10.67;;;;;;;;;;4916595;29;20579;-80
2024/01/20 11:06:31;;;;;;;15.57;9.50;;;;;;;;;;4931110;29;20428;-80
2024/01/20 11:09:00;;;;;;;18.40;9.27;;;;;;;;;;4917706;29;20771;-79
2024/01/20 11:11:27;;;;;;;19.03;10.47;;;;;;;;;;4920503;29;20413;-80
2024/01/20 11:13:57;;;;;;;17.03;9.53;;;;;;;;;;4920491;29;20425;-82
2024/01/20 11:16:23;;;;;;;23.37;10.13;;;;;;;;;;4920345;29;20473;-80
2024/01/20 11:18:52;;;;;;;15.33;9.60;;;;;;;;;;4920184;29;20477;-81
2024/01/20 11:21:19;;;;;;;18.90;11.43;;;;;;;;;;4919988;29;20916;-80
2024/01/20 11:24:01;;;;;;;16.27;9.43;;;;;;;;;;4920370;29;20774;-81
2024/01/20 11:26:37;;;;;;;15.03;9.40;;;;;;;;;;4920322;29;20782;-79
2024/01/20 11:29:04;;;;;;;20.70;9.03;;;;;;;;;;4920306;29;20418;-81
2024/01/20 11:31:36;;;;;;;20.50;10.40;;;;;;;;;;4920184;29;20783;-82
2024/01/20 11:34:04;;;;;;;17.87;10.50;;;;;;;;;;4934301;29;20430;-81
2024/01/20 11:36:31;;;;;;;18.33;9.23;;;;;;;;;;4919749;29;20422;-80
2024/01/20 11:38:57;;;;;;;14.47;8.17;;;;;;;;;;4919965;29;20837;-82
2024/01/20 11:41:24;;;;;;;17.03;8.80;;;;;;;;;;4919908;29;20928;-82
2024/01/20 11:43:50;;;;;;;16.60;7.90;;;;;;;;;;4920065;29;20514;-80
2024/01/20 11:46:16;;;;;;;19.27;10.03;;;;;;;;;;4934593;29;20514;-82
2024/01/20 11:48:42;;;;;;;13.60;7.50;;;;;;;;;;4919804;29;20427;-80
2024/01/20 11:51:10;;;;;;;16.30;8.10;;;;;;;;;;4919634;29;20845;-81
2024/01/20 11:53:36;;;;;;;18.23;10.43;;;;;;;;;;4919823;29;20425;-82
2024/01/20 11:56:03;;;;;;;16.23;8.53;;;;;;;;;;4919738;29;20416;-81
2024/01/20 11:58:32;;;;;;;15.20;9.63;;;;;;;;;;4919689;29;20476;-81
2024/01/20 12:00:59;;;;;;;16.67;9.03;;;;;;;;;;4934199;29;20434;-82
2024/01/20 12:03:26;;;;;;;18.10;8.60;;;;;;;;;;4919632;29;20454;-82
2024/01/20 12:05:52;;;;;;;15.33;9.23;;;;;;;;;;4919334;29;20500;-82
2024/01/20 12:08:18;;;;;;;16.57;8.63;;;;;;;;;;4934080;29;20470;-82
2024/01/20 12:10:46;;;;;;;19.23;8.63;;;;;;;;;;4919496;29;20505;-82
2024/01/20 12:13:12;;;;;;;15.47;8.23;;;;;;;;;;4919329;29;20962;-82
2024/01/20 12:15:39;;;;;;;16.40;7.77;;;;;;;;;;4919241;29;20426;-82
2024/01/20 12:18:05;;;;;;;14.17;8.33;;;;;;;;;;4898701;29;20469;-82
2024/01/20 12:20:30;;;;;;;14.67;7.90;;;;;;;;;;4937498;29;20983;-82
2024/01/20 12:22:57;;;;;;;18.00;8.63;;;;;;;;;;4938313;29;20482;-81
2024/01/20 12:25:26;;;;;;;17.87;8.77;;;;;;;;;;4938215;29;20457;-81
2024/01/20 12:27:52;;;;;;;20.13;8.90;;;;;;;;;;4938171;29;20784;-81
2024/01/20 12:30:18;;;;;;;16.73;10.10;;;;;;;;;;4938230;29;20420;-81
2024/01/20 12:32:44;;;;;;;15.53;8.50;;;;;;;;;;4938093;29;20421;-80
2024/01/20 12:35:10;;;;;;;18.10;9.73;;;;;;;;;;4937786;29;20454;-82
2024/01/20 12:37:36;;;;;;;19.57;10.20;;;;;;;;;;4937819;29;20909;-79
2024/01/20 12:40:03;;;;;;;18.97;9.77;;;;;;;;;;4937685;29;20561;-82
2024/01/20 12:42:29;;;;;;;15.20;8.97;;;;;;;;;;4937633;29;20472;-82
2024/01/20 12:44:55;;;;;;;19.40;11.40;;;;;;;;;;4936329;29;20437;-80
2024/01/20 12:47:21;;;;;;;19.33;10.70;;;;;;;;;;4938003;29;20459;-81
2024/01/20 12:49:47;;;;;;;16.10;9.00;;;;;;;;;;4937545;29;20430;-81
2024/01/20 12:52:13;;;;;;;19.80;9.93;;;;;;;;;;4937531;29;20455;-81
2024/01/20 12:54:39;;;;;;;15.97;9.37;;;;;;;;;;4937678;29;20448;-82
2024/01/20 12:57:05;;;;;;;13.50;9.07;;;;;;;;;;4937806;29;20419;-80
2024/01/20 12:59:31;;;;;;;20.60;9.50;;;;;;;;;;4937674;29;20477;-81
2024/01/20 13:01:57;;;;;;;17.97;10.63;;;;;;;;;;4937561;29;20414;-82
2024/01/20 13:04:23;;;;;;;20.10;10.50;;;;;;;;;;4937219;29;20490;-80
2024/01/20 13:06:49;;;;;;;16.53;8.27;;;;;;;;;;4937537;29;20408;-81
2024/01/20 13:09:17;;;;;;;11.50;7.60;;;;;;;;;;4937598;29;20828;-82
2024/01/20 13:11:43;;;;;;;17.27;8.40;;;;;;;;;;4937535;29;20556;-82
2024/01/20 13:14:09;;;;;;;18.43;10.40;;;;;;;;;;4937465;29;20427;-82
2024/01/20 13:16:35;;;;;;;15.23;8.00;;;;;;;;;;4937454;29;20409;-80
2024/01/20 13:19:01;;;;;;;17.93;9.13;;;;;;;;;;4897294;29;21002;-80
2024/01/20 13:21:27;;;;;;;16.33;8.77;;;;;;;;;;4937170;29;20927;-79
2024/01/20 13:23:53;;;;;;;17.77;9.23;;;;;;;;;;4937244;29;20513;-81
2024/01/20 13:26:19;;;;;;;14.27;8.37;;;;;;;;;;4937098;29;20922;-80
2024/01/20 13:28:48;;;;;;;13.27;8.17;;;;;;;;;;4936999;29;20434;-80
2024/01/20 13:31:17;;;;;;;15.33;8.53;;;;;;;;;;4936632;29;20439;-81
2024/01/20 13:33:43;;;;;;;18.93;9.00;;;;;;;;;;4937925;29;20428;-79
2024/01/20 13:36:09;;;;;;;15.50;8.40;;;;;;;;;;4938066;29;20422;-80
2024/01/20 13:38:37;;;;;;;17.00;8.17;;;;;;;;;;4937516;29;20497;-78
2024/01/20 13:41:04;;;;;;;17.37;9.63;;;;;;;;;;4938103;29;20409;-77
2024/01/20 13:43:30;;;;;;;16.03;8.67;;;;;;;;;;4938268;29;20427;-84
2024/01/20 13:45:56;;;;;;;18.57;9.73;;;;;;;;;;4937330;29;20562;-77
2024/01/20 13:48:21;;;;;;;18.17;9.27;;;;;;;;;;4937358;29;20857;-79
2024/01/20 13:50:48;;;;;;;18.60;8.80;;;;;;;;;;4938048;29;20415;-83
2024/01/20 13:53:15;;;;;;;16.27;8.60;;;;;;;;;;4937515;29;20469;-83
2024/01/20 13:55:41;;;;;;;16.33;9.20;;;;;;;;;;4937470;29;20421;-78
2024/01/20 13:58:07;;;;;;;14.80;8.97;;;;;;;;;;4938238;29;20492;-79
2024/01/20 14:00:33;;;;;;;25.47;9.23;;;;;;;;;;4937810;29;20426;-82
2024/01/20 14:02:59;;;;;;;18.30;9.80;;;;;;;;;;4939407;29;20920;-77
2024/01/20 14:05:25;;;;;;;16.87;10.37;;;;;;;;;;4931899;29;20472;-80
2024/01/20 14:07:51;;;;;;;17.30;9.83;;;;;;;;;;4932674;29;20456;-79
2024/01/20 14:10:17;;;;;;;18.43;10.87;;;;;;;;;;4937446;29;21067;-82
2024/01/20 14:12:43;;;;;;;16.37;10.10;;;;;;;;;;4937313;28;20414;-79
2024/01/20 14:15:09;;;;;;;22.13;12.33;;;;;;;;;;4939759;28;20513;-85
2024/01/20 14:17:35;;;;;;;17.00;10.13;;;;;;;;;;4936224;29;20436;-84
2024/01/20 14:20:01;;;;;;;17.37;9.70;;;;;;;;;;4895410;29;20482;-78